Boulder, CO (80303)

2:46 AM MDT on April 19, 2015 (GMT -0600)
seneca | | Change Station
CLOSE
Current Station
Personal Weather Station
Location: Boulder, CO
Elevation: 5335 ft
Nearby Weather Stations

Elev 5335 ft 40.00 °N, 105.22 °W | Updated 1 minute ago

Rain
Rain
39.7 °F
Feels Like 40 °F
N
0.0
Wind Variable Wind from NE
Gusts 1.0 mph

Today
High -- | Low -- °F
--% Chance of Precip.
Yesterday
High -- | Low -- °F
Precip. -- in
6:17 AM 7:43 PM
New Moon, 0% visible
Pressure 30.07 in
Visibility 10.0 miles
Clouds Scattered Clouds 4400 ft
Overcast 5500 ft
Windchill 40 °F
Dew Point 37 °F
Humidity 89%
Rainfall 0.02 in
Snow Depth Not available.
UV 0 out of 12
Pollen 6.20 out of 12
Air Quality Not available.
Flu Activity Local Activity
METAR KBDU 190838Z AUTO 35003KT 10SM SCT044 OVC055 05/03 A3007 RMK AO2

More Conditions Fewer Conditions

Pressure 30.07 in
Visibility 10.0 miles
Clouds Scattered Clouds 4400 ft
Overcast 5500 ft
Windchill 40 °F
Dew Point 37 °F
Humidity 89%
Rainfall 0.02 in
Snow Depth Not available.
UV 0 out of 12
Pollen 6.20 out of 12
Air Quality Not available.
Flu Activity Local Activity
METAR KBDU 190838Z AUTO 35003KT 10SM SCT044 OVC055 05/03 A3007 RMK AO2

More Conditions Fewer Conditions

10-Day Weather Forecast

Almanac

Astronomy

Apr. 19, 2015 Rise Set
Actual Time
Civil Twilight
Nautical Twilight
Astronomical Twilight
Moon
Length of Visible Light
Length of Day
Tomorrow will be .
, % of the Moon is Illuminated

Today's Extremes

State Highs State Lows

Community

WunderPhotos

Upload Photos

1,814,723 photos uploaded!

WunderBlogs® & News

Nearby

Air Quality

  Air Quality AQ Index Pollutant
Not available.

Snow Depth

Station Depth Elevation

Earthquake Activity

City Distance Mag. Time & Date
Minimum magnitude displayed is 2.5.

Coastal Water Temperatures

Place Temperature

Stations

Nearby Weather Stations

Station Location Temp. Windchill Dew Point Humidity Wind Precip. Elev Updated Type